Time;durP1;ratioP1;P1;durP2;ratioP2;P2;SDS_P1;SDS_P2;PMS_P1;PMS_P2;Temp;Humidity;BMP_temperature;BMP_pressure;BME280_temperature;BME280_humidity;BME280_pressure;Samples;Min_cycle;Max_cycle;Signal;HPM_P1;HPM_P2
2022/03/21 00:00:45;;;;;;;16.30;6.80;;;7.80;99.90;;;;;;5117169;27;20027;-68
2022/03/21 00:03:15;;;;;;;21.33;8.10;;;7.60;99.90;;;;;;5114816;27;20019;-67
2022/03/21 00:05:42;;;;;;;14.35;7.28;;;7.60;99.90;;;;;;5113732;27;20020;-67
2022/03/21 00:08:08;;;;;;;18.20;6.28;;;7.60;99.90;;;;;;5115075;27;20095;-67
2022/03/21 00:10:34;;;;;;;19.65;6.78;;;7.50;99.90;;;;;;5112732;27;20027;-67
2022/03/21 00:13:01;;;;;;;14.65;6.15;;;7.50;99.90;;;;;;5114482;27;20030;-67
2022/03/21 00:15:29;;;;;;;20.55;7.50;;;7.50;99.90;;;;;;5115525;27;20031;-67
2022/03/21 00:17:55;;;;;;;25.70;7.90;;;7.40;99.90;;;;;;5114211;27;20090;-67
2022/03/21 00:20:21;;;;;;;17.10;7.32;;;7.30;99.90;;;;;;5118349;27;20069;-67
2022/03/21 00:22:47;;;;;;;14.93;5.63;;;7.30;99.90;;;;;;5114063;27;20132;-67
2022/03/21 00:25:12;;;;;;;12.23;4.93;;;7.40;99.90;;;;;;5117692;27;20023;-67
2022/03/21 00:27:38;;;;;;;14.63;6.07;;;7.40;99.90;;;;;;5119122;27;20027;-67
2022/03/21 00:30:05;;;;;;;14.43;5.63;;;7.50;99.90;;;;;;5110865;27;20047;-67
2022/03/21 00:32:31;;;;;;;17.67;6.45;;;7.50;99.90;;;;;;5115928;27;20524;-67
2022/03/21 00:34:57;;;;;;;16.63;6.20;;;7.40;99.90;;;;;;5113245;27;20030;-67
2022/03/21 00:37:23;;;;;;;15.52;5.88;;;7.40;99.90;;;;;;5117302;27;20027;-67
2022/03/21 00:39:52;;;;;;;14.02;5.65;;;7.40;99.90;;;;;;5113012;27;20144;-66
2022/03/21 00:42:18;;;;;;;16.67;5.93;;;7.40;99.90;;;;;;5111170;27;20294;-65
2022/03/21 00:44:44;;;;;;;16.70;6.18;;;7.30;99.90;;;;;;5110318;27;20035;-67
2022/03/21 00:47:10;;;;;;;12.60;5.30;;;7.30;99.90;;;;;;5116718;27;20046;-67
2022/03/21 00:49:35;;;;;;;16.38;6.13;;;7.30;99.90;;;;;;5114834;27;20019;-67
2022/03/21 00:52:01;;;;;;;17.08;6.43;;;7.30;99.90;;;;;;5114095;27;20364;-67
2022/03/21 00:54:27;;;;;;;16.15;5.68;;;7.50;99.90;;;;;;5116013;27;20096;-67
2022/03/21 00:56:53;;;;;;;17.58;4.55;;;7.50;99.90;;;;;;5110628;27;20460;-67
2022/03/21 00:59:19;;;;;;;17.67;5.35;;;7.60;99.90;;;;;;5116935;27;20035;-67
2022/03/21 01:01:45;;;;;;;13.88;5.00;;;7.50;99.90;;;;;;5112043;27;20546;-67
2022/03/21 01:04:10;;;;;;;18.90;6.55;;;7.50;99.90;;;;;;5116047;27;20019;-67
2022/03/21 01:06:36;;;;;;;17.73;4.75;;;7.70;99.90;;;;;;5117656;28;20222;-67
2022/03/21 01:09:03;;;;;;;13.85;6.28;;;7.60;99.90;;;;;;5111822;28;20027;-67
2022/03/21 01:11:28;;;;;;;14.77;4.90;;;7.50;99.90;;;;;;5115750;27;20062;-67
2022/03/21 01:13:54;;;;;;;10.48;4.70;;;7.50;99.90;;;;;;5114935;28;20055;-67
2022/03/21 01:16:20;;;;;;;11.77;4.50;;;7.40;99.90;;;;;;5113111;28;20106;-67
2022/03/21 01:18:45;;;;;;;17.20;5.60;;;7.50;99.90;;;;;;5109470;28;20055;-67
2022/03/21 01:21:14;;;;;;;10.23;4.32;;;7.60;99.90;;;;;;5114288;28;20023;-67
2022/03/21 01:23:39;;;;;;;16.67;5.93;;;7.40;99.90;;;;;;5112175;28;20028;-67
2022/03/21 01:26:05;;;;;;;21.08;4.90;;;7.40;99.90;;;;;;5111869;28;20030;-67
2022/03/21 01:28:31;;;;;;;16.05;4.60;;;7.50;99.90;;;;;;5114768;28;20054;-67
2022/03/21 01:30:57;;;;;;;11.63;4.90;;;7.50;99.90;;;;;;5114834;28;20043;-67
2022/03/21 01:33:22;;;;;;;14.20;4.63;;;7.50;99.90;;;;;;5111570;28;20161;-67
2022/03/21 01:35:48;;;;;;;18.60;5.30;;;7.40;99.90;;;;;;5111789;28;20028;-67
2022/03/21 01:38:13;;;;;;;17.50;5.28;;;7.60;99.90;;;;;;5111342;28;20019;-67
2022/03/21 01:40:39;;;;;;;17.70;4.75;;;7.60;99.90;;;;;;5115937;28;20390;-67
2022/03/21 01:43:12;;;;;;;16.10;4.75;;;7.70;99.90;;;;;;5114809;28;20964;-67
2022/03/21 01:45:38;;;;;;;18.40;4.88;;;7.70;99.90;;;;;;5116328;28;20199;-67
2022/03/21 01:48:04;;;;;;;16.35;5.55;;;7.80;99.90;;;;;;5116963;27;20513;-67
2022/03/21 01:50:30;;;;;;;14.00;5.55;;;7.90;99.90;;;;;;5114248;28;20107;-67
2022/03/21 01:55:44;;;;;;;11.50;5.50;;;7.60;99.90;;;;;;5114638;28;20046;-67
2022/03/21 01:58:13;;;;;;;12.87;4.87;;;7.60;99.90;;;;;;5116145;27;20467;-67
2022/03/21 02:00:41;;;;;;;11.60;5.35;;;7.60;99.90;;;;;;5118160;27;20024;-67
2022/03/21 02:03:06;;;;;;;13.02;5.05;;;7.70;99.90;;;;;;5113114;27;20032;-67
2022/03/21 02:05:36;;;;;;;19.48;5.32;;;7.70;99.90;;;;;;5117510;27;20092;-67
2022/03/21 02:08:02;;;;;;;19.40;5.97;;;7.60;99.90;;;;;;5119380;27;20055;-67
2022/03/21 02:10:29;;;;;;;14.48;4.75;;;7.60;99.90;;;;;;5114416;27;20526;-67
2022/03/21 02:12:55;;;;;;;14.80;5.45;;;7.50;99.90;;;;;;5120830;27;20483;-67
2022/03/21 02:15:21;;;;;;;12.82;5.65;;;7.50;99.90;;;;;;5115271;27;20024;-67
2022/03/21 02:17:47;;;;;;;15.25;5.50;;;7.40;99.90;;;;;;5118206;27;20050;-67
2022/03/21 02:20:21;;;;;;;21.15;7.28;;;7.40;99.90;;;;;;5118012;27;20015;-67
2022/03/21 02:23:20;;;;;;;18.48;5.78;;;7.50;99.90;;;;;;5116997;27;20050;-67
2022/03/21 02:25:47;;;;;;;12.82;6.07;;;7.40;99.90;;;;;;5123366;27;20080;-67
2022/03/21 02:28:17;;;;;;;18.17;6.25;;;7.40;99.90;;;;;;5117981;27;20039;-67
2022/03/21 02:30:47;;;;;;;20.23;6.60;;;7.40;99.90;;;;;;5115450;27;20048;-67
2022/03/21 02:33:15;;;;;;;20.10;8.05;;;7.40;99.90;;;;;;5119548;27;20035;-67
2022/03/21 02:35:45;;;;;;;20.08;7.10;;;7.40;99.90;;;;;;5116955;27;20054;-67
2022/03/21 02:38:12;;;;;;;17.63;6.68;;;7.50;99.90;;;;;;5116481;27;20445;-67
2022/03/21 02:40:37;;;;;;;16.95;7.25;;;7.50;99.90;;;;;;5114525;27;20026;-67
2022/03/21 02:43:03;;;;;;;22.35;6.47;;;7.50;99.90;;;;;;5112969;27;20031;-67
2022/03/21 02:45:28;;;;;;;16.95;7.82;;;7.60;99.90;;;;;;5116090;27;20486;-67
2022/03/21 02:47:54;;;;;;;17.17;6.68;;;7.50;99.90;;;;;;5120286;27;20444;-67
2022/03/21 02:50:45;;;;;;;19.10;6.85;;;7.40;99.90;;;;;;5116075;27;20034;-67
2022/03/21 02:53:11;;;;;;;24.55;7.03;;;7.40;99.90;;;;;;5123059;27;20028;-67
2022/03/21 02:55:40;;;;;;;18.30;6.70;;;7.50;99.90;;;;;;5117344;27;20059;-67
2022/03/21 02:58:05;;;;;;;24.80;7.28;;;7.40;99.90;;;;;;5118269;27;20049;-67
2022/03/21 03:00:31;;;;;;;16.33;7.00;;;7.30;99.90;;;;;;5114835;27;20555;-67
2022/03/21 03:02:56;;;;;;;25.15;8.68;;;7.40;99.90;;;;;;5114064;27;20060;-67
2022/03/21 03:05:22;;;;;;;17.40;6.45;;;7.40;99.90;;;;;;5116813;27;20467;-67
2022/03/21 03:07:48;;;;;;;19.40;7.90;;;7.40;99.90;;;;;;5119231;27;20043;-67
2022/03/21 03:10:13;;;;;;;19.33;6.88;;;7.10;99.90;;;;;;5111776;27;20030;-67
2022/03/21 03:12:39;;;;;;;22.23;9.48;;;7.10;99.90;;;;;;5115839;27;20038;-67
2022/03/21 03:15:05;;;;;;;16.83;7.25;;;7.20;99.90;;;;;;5116858;27;20027;-67
2022/03/21 03:17:31;;;;;;;21.33;8.40;;;7.20;99.90;;;;;;5111435;27;20020;-67
2022/03/21 03:19:56;;;;;;;17.30;7.20;;;7.10;99.90;;;;;;5109959;27;20054;-67
2022/03/21 03:22:24;;;;;;;13.80;6.47;;;7.10;99.90;;;;;;5113638;27;20031;-67
2022/03/21 03:24:51;;;;;;;19.45;7.43;;;7.30;99.90;;;;;;5113041;27;20038;-67
2022/03/21 03:27:17;;;;;;;23.48;9.60;;;7.30;99.90;;;;;;5114935;27;20115;-67
2022/03/21 03:29:42;;;;;;;21.58;8.02;;;7.20;99.90;;;;;;5112702;27;20589;-67
2022/03/21 03:32:08;;;;;;;20.17;8.50;;;7.10;99.90;;;;;;5113869;27;20035;-67
2022/03/21 03:34:35;;;;;;;25.38;9.57;;;7.00;99.90;;;;;;5113754;27;20027;-67
2022/03/21 03:37:01;;;;;;;22.40;8.07;;;6.70;99.90;;;;;;5113677;27;20072;-67
2022/03/21 03:39:28;;;;;;;21.08;8.32;;;6.60;99.90;;;;;;5114979;27;20023;-67
2022/03/21 03:41:54;;;;;;;19.05;7.38;;;6.40;99.90;;;;;;5110469;27;20514;-67
2022/03/21 03:44:20;;;;;;;24.50;7.70;;;6.30;99.90;;;;;;5113853;27;20031;-67
2022/03/21 03:46:45;;;;;;;25.02;8.75;;;6.20;99.90;;;;;;5123991;27;20012;-67
2022/03/21 03:49:11;;;;;;;18.23;7.22;;;6.20;99.90;;;;;;5114185;27;20028;-67
2022/03/21 03:51:36;;;;;;;21.95;8.32;;;6.20;99.90;;;;;;5111379;27;20028;-67
2022/03/21 03:54:02;;;;;;;18.35;9.27;;;6.30;99.90;;;;;;5113784;27;20020;-67
2022/03/21 03:56:28;;;;;;;23.52;9.48;;;6.40;99.90;;;;;;5121434;27;20024;-67
2022/03/21 03:58:53;;;;;;;19.23;8.27;;;6.40;99.90;;;;;;5113882;27;20031;-67
2022/03/21 04:01:19;;;;;;;21.45;8.13;;;6.40;99.90;;;;;;5117034;27;20551;-67
2022/03/21 04:03:44;;;;;;;21.15;7.40;;;6.30;99.90;;;;;;5112063;27;20278;-67
2022/03/21 04:06:10;;;;;;;20.92;8.40;;;6.30;99.90;;;;;;5116138;27;20027;-67
2022/03/21 04:08:36;;;;;;;19.52;8.20;;;6.10;99.90;;;;;;5118915;27;20486;-67
2022/03/21 04:11:02;;;;;;;24.60;9.05;;;6.10;99.90;;;;;;5107716;27;20035;-67
2022/03/21 04:13:27;;;;;;;18.70;9.18;;;6.00;99.90;;;;;;5117761;27;20035;-67
2022/03/21 04:15:53;;;;;;;19.98;8.60;;;6.00;99.90;;;;;;5111588;27;20022;-67
2022/03/21 04:18:20;;;;;;;21.77;9.25;;;5.90;99.90;;;;;;5116937;27;20291;-67
2022/03/21 04:20:46;;;;;;;24.23;7.47;;;5.90;99.90;;;;;;5116720;27;20248;-67
2022/03/21 04:23:11;;;;;;;16.67;8.18;;;5.90;99.90;;;;;;5111874;27;20494;-67
2022/03/21 04:25:38;;;;;;;26.10;9.88;;;5.80;99.90;;;;;;5116051;27;20054;-67
2022/03/21 04:28:14;;;;;;;25.10;9.20;;;5.80;99.90;;;;;;5118515;27;20172;-67
2022/03/21 04:30:41;;;;;;;20.35;7.68;;;5.60;99.90;;;;;;5115438;27;20595;-67
2022/03/21 04:33:12;;;;;;;18.83;7.35;;;5.40;99.90;;;;;;5110677;27;20368;-67
2022/03/21 04:35:38;;;;;;;22.73;9.57;;;5.30;99.90;;;;;;5117825;27;20214;-67
2022/03/21 04:38:12;;;;;;;21.52;7.85;;;5.10;99.90;;;;;;5115021;27;20023;-67
2022/03/21 04:40:38;;;;;;;21.42;7.28;;;5.00;99.90;;;;;;5115226;27;20101;-67
2022/03/21 04:43:04;;;;;;;19.15;7.03;;;5.00;99.90;;;;;;5115650;27;20475;-67
2022/03/21 04:45:29;;;;;;;18.60;7.63;;;5.00;99.90;;;;;;5112594;27;20080;-67
2022/03/21 04:47:55;;;;;;;17.63;7.88;;;5.00;99.90;;;;;;5115316;27;20023;-67
2022/03/21 04:50:21;;;;;;;32.22;8.75;;;4.90;99.90;;;;;;5114455;27;20374;-67
2022/03/21 04:52:46;;;;;;;18.90;7.68;;;4.90;99.90;;;;;;5114802;27;20492;-67
2022/03/21 04:55:15;;;;;;;26.70;9.07;;;4.90;99.90;;;;;;5110599;27;20023;-67
2022/03/21 04:57:41;;;;;;;21.60;8.32;;;5.00;99.90;;;;;;5115517;27;20027;-67
2022/03/21 05:00:07;;;;;;;24.05;7.75;;;5.20;99.90;;;;;;5110106;27;20020;-67
2022/03/21 05:02:32;;;;;;;22.35;7.55;;;5.40;99.90;;;;;;5115997;28;20475;-67
2022/03/21 05:04:58;;;;;;;20.48;7.18;;;5.20;99.90;;;;;;5113689;27;20034;-67
2022/03/21 05:07:25;;;;;;;18.55;7.35;;;5.10;99.90;;;;;;5117008;28;20049;-67
2022/03/21 05:09:51;;;;;;;19.52;7.90;;;5.30;99.90;;;;;;5115417;27;20046;-67
2022/03/21 05:12:16;;;;;;;21.35;7.60;;;5.40;99.90;;;;;;5114262;28;20149;-67
2022/03/21 05:14:42;;;;;;;18.08;6.35;;;5.50;99.90;;;;;;5113550;28;20023;-67
2022/03/21 05:17:10;;;;;;;21.67;7.85;;;5.60;99.90;;;;;;5110958;27;20031;-66
2022/03/21 05:19:37;;;;;;;13.52;5.40;;;5.60;99.90;;;;;;5116123;28;20047;-67
2022/03/21 05:22:06;;;;;;;15.45;6.65;;;5.60;99.90;;;;;;5111980;27;20046;-67
2022/03/21 05:32:47;;;;;;;17.73;6.78;;;5.10;99.90;;;;;;5112479;27;20419;-67
2022/03/21 05:37:57;;;;;;;16.65;7.47;;;5.30;99.90;;;;;;5117421;27;20502;-67
2022/03/21 05:40:31;;;;;;;13.88;5.95;;;5.30;99.90;;;;;;5119141;27;20024;-67
2022/03/21 05:42:57;;;;;;;13.52;6.20;;;5.10;99.90;;;;;;5115598;27;20031;-67
2022/03/21 05:45:23;;;;;;;18.85;7.05;;;4.90;99.90;;;;;;5111442;27;20534;-66
2022/03/21 05:50:37;;;;;;;16.10;6.18;;;4.80;99.90;;;;;;5117627;27;20034;-67
2022/03/21 05:53:04;;;;;;;16.90;7.20;;;4.80;99.90;;;;;;5111838;27;20085;-67
2022/03/21 05:55:30;;;;;;;15.75;5.63;;;4.80;99.90;;;;;;5122420;27;20023;-67
2022/03/21 05:57:57;;;;;;;17.38;7.35;;;5.10;99.90;;;;;;5123428;27;20415;-67
2022/03/21 06:00:24;;;;;;;23.63;6.45;;;5.10;99.90;;;;;;5121744;27;20028;-67
2022/03/21 06:02:51;;;;;;;17.02;7.00;;;5.20;99.90;;;;;;5118649;27;20534;-67
2022/03/21 06:05:17;;;;;;;15.65;6.38;;;5.30;99.90;;;;;;5122334;27;20106;-67
2022/03/21 06:07:43;;;;;;;17.40;6.45;;;5.30;99.90;;;;;;5113786;27;20084;-67
2022/03/21 06:10:10;;;;;;;24.55;6.82;;;5.30;99.90;;;;;;5114742;27;20023;-67
2022/03/21 06:12:36;;;;;;;17.67;8.40;;;5.30;99.90;;;;;;5114967;27;20039;-67
2022/03/21 06:15:02;;;;;;;14.18;6.53;;;5.30;99.90;;;;;;5112390;27;20498;-67
2022/03/21 06:17:29;;;;;;;12.90;6.45;;;5.20;99.90;;;;;;5122425;27;20019;-67
2022/03/21 06:19:54;;;;;;;15.07;6.03;;;5.20;99.90;;;;;;5114790;27;20528;-67
2022/03/21 06:22:20;;;;;;;23.15;8.13;;;5.20;99.90;;;;;;5124613;27;20028;-67
2022/03/21 06:24:45;;;;;;;15.23;6.60;;;5.30;99.90;;;;;;5118460;27;20110;-67
2022/03/21 06:27:11;;;;;;;16.48;6.22;;;5.50;99.90;;;;;;5120701;27;20019;-67
2022/03/21 06:29:41;;;;;;;18.40;6.45;;;5.40;99.90;;;;;;5112298;27;20092;-67
2022/03/21 06:32:07;;;;;;;;;;;5.80;99.90;;;;;;5118667;27;20030;-68
2022/03/21 06:34:33;;;;;;;13.60;5.15;;;6.00;99.90;;;;;;5117455;27;20029;-67
2022/03/21 06:36:59;;;;;;;19.83;7.05;;;6.50;99.90;;;;;;5112775;27;20460;-67
2022/03/21 06:39:25;;;;;;;13.40;5.90;;;6.70;99.90;;;;;;5113576;27;20118;-68
2022/03/21 06:41:51;;;;;;;14.95;5.13;;;6.90;99.90;;;;;;5120764;27;20106;-68
2022/03/21 06:44:16;;;;;;;12.15;4.68;;;7.10;99.90;;;;;;5108041;27;20719;-68
2022/03/21 06:46:42;;;;;;;18.15;6.07;;;7.20;99.90;;;;;;5126497;27;20027;-68
2022/03/21 06:49:08;;;;;;;14.50;5.45;;;7.20;99.90;;;;;;5119662;27;20043;-66
2022/03/21 06:51:34;;;;;;;13.35;5.80;;;7.10;99.90;;;;;;5109717;27;20027;-66
2022/03/21 06:54:00;;;;;;;12.05;5.68;;;7.10;99.90;;;;;;5113648;27;20471;-68
2022/03/21 06:56:25;;;;;;;15.70;5.78;;;7.30;99.90;;;;;;5114426;27;20027;-68
2022/03/21 06:58:51;;;;;;;17.20;5.70;;;7.30;99.90;;;;;;5112050;27;20510;-68
2022/03/21 07:01:16;;;;;;;15.20;5.30;;;7.40;99.90;;;;;;5112251;27;20141;-66
2022/03/21 07:03:42;;;;;;;15.35;5.68;;;7.40;99.90;;;;;;5114970;27;20031;-65
2022/03/21 07:06:07;;;;;;;11.48;4.90;;;7.50;99.90;;;;;;5110102;27;20031;-65
2022/03/21 07:08:33;;;;;;;13.27;5.10;;;7.60;99.90;;;;;;5114245;27;20027;-65
2022/03/21 07:10:59;;;;;;;12.93;5.65;;;7.60;99.90;;;;;;5116107;27;20451;-66
2022/03/21 07:13:27;;;;;;;14.05;6.60;;;7.70;99.90;;;;;;5111562;27;20040;-65
2022/03/21 07:15:53;;;;;;;14.05;6.22;;;7.80;99.90;;;;;;5115532;27;20129;-66
2022/03/21 07:18:19;;;;;;;17.70;5.68;;;7.90;99.90;;;;;;5117661;27;20046;-66
2022/03/21 07:20:44;;;;;;;13.25;4.97;;;8.00;99.90;;;;;;5115979;27;20027;-66
2022/03/21 07:23:10;;;;;;;13.68;5.32;;;8.20;99.90;;;;;;5113237;27;20058;-68
2022/03/21 07:25:35;;;;;;;19.20;7.13;;;8.30;99.90;;;;;;5110866;27;20046;-65
2022/03/21 07:28:01;;;;;;;16.40;5.85;;;8.40;99.90;;;;;;5107017;27;20473;-65
2022/03/21 07:30:27;;;;;;;14.88;5.15;;;8.60;99.90;;;;;;5112636;27;20038;-66
2022/03/21 07:32:53;;;;;;;14.65;6.32;;;8.70;99.90;;;;;;5115965;27;20028;-66
2022/03/21 07:35:19;;;;;;;20.08;5.70;;;8.90;99.90;;;;;;5109698;27;20039;-66
2022/03/21 07:37:47;;;;;;;17.02;5.20;;;9.00;99.90;;;;;;5113423;27;20030;-66
2022/03/21 07:40:14;;;;;;;18.00;4.63;;;9.20;99.90;;;;;;5113788;27;20026;-66
2022/03/21 07:42:44;;;;;;;12.95;5.00;;;9.40;99.90;;;;;;5120130;27;20043;-68
2022/03/21 07:47:57;;;;;;;19.33;5.72;;;9.60;99.90;;;;;;5120693;27;20077;-66
2022/03/21 07:50:23;;;;;;;15.93;5.65;;;9.70;99.90;;;;;;5121104;27;20059;-67
2022/03/21 07:52:51;;;;;;;19.13;5.20;;;9.90;99.90;;;;;;5116571;27;20467;-66
2022/03/21 07:55:16;;;;;;;14.82;4.70;;;10.00;99.90;;;;;;5114327;27;20032;-66
2022/03/21 07:57:42;;;;;;;14.55;5.32;;;10.10;99.90;;;;;;5114429;27;20030;-66
2022/03/21 08:00:12;;;;;;;15.88;5.90;;;10.20;99.90;;;;;;5116190;27;20100;-66
2022/03/21 08:02:39;;;;;;;13.65;5.50;;;10.30;99.90;;;;;;5116255;27;20115;-66
2022/03/21 08:05:05;;;;;;;13.25;5.38;;;10.40;99.90;;;;;;5111092;27;20069;-66
2022/03/21 08:07:34;;;;;;;17.30;5.95;;;10.60;99.50;;;;;;5108132;27;20724;-68
2022/03/21 08:10:00;;;;;;;8.40;3.70;;;10.70;99.90;;;;;;5115788;27;20049;-68
2022/03/21 08:12:26;;;;;;;11.15;3.95;;;10.70;99.00;;;;;;5111817;27;20036;-67
2022/03/21 08:14:51;;;;;;;14.32;4.88;;;10.80;98.70;;;;;;5120073;27;20463;-68
2022/03/21 08:17:18;;;;;;;11.75;5.15;;;10.90;99.20;;;;;;5118079;27;20026;-68
2022/03/21 08:19:44;;;;;;;11.10;4.60;;;11.10;99.20;;;;;;5112989;27;20015;-68
2022/03/21 08:22:10;;;;;;;10.80;3.97;;;11.10;98.50;;;;;;5111689;27;20102;-68
2022/03/21 08:24:36;;;;;;;14.77;4.40;;;11.20;98.10;;;;;;5111546;27;21885;-68
2022/03/21 08:27:03;;;;;;;9.75;3.22;;;11.40;98.10;;;;;;5113793;27;20037;-68
2022/03/21 08:29:29;;;;;;;15.57;5.30;;;11.50;97.20;;;;;;5112666;27;20106;-66
2022/03/21 08:31:55;;;;;;;11.00;3.97;;;11.60;97.20;;;;;;5114343;27;20134;-66
2022/03/21 08:34:21;;;;;;;14.27;5.25;;;11.90;96.20;;;;;;5113937;27;20114;-66
2022/03/21 08:36:47;;;;;;;14.63;4.50;;;12.30;95.60;;;;;;5110785;27;20081;-66
2022/03/21 08:39:12;;;;;;;13.77;4.75;;;12.50;94.40;;;;;;5112244;27;20015;-68
2022/03/21 08:41:38;;;;;;;14.32;5.57;;;12.70;93.70;;;;;;5110878;27;20038;-68
2022/03/21 08:44:04;;;;;;;10.93;4.82;;;13.00;93.40;;;;;;5108904;27;20031;-68
2022/03/21 08:46:30;;;;;;;15.95;5.22;;;13.10;93.40;;;;;;5110800;27;20092;-68
2022/03/21 08:51:39;;;;;;;14.73;4.18;;;13.50;92.50;;;;;;5108794;27;20051;-65
2022/03/21 08:54:07;;;;;;;12.50;4.75;;;13.90;92.00;;;;;;5111502;27;20027;-65
2022/03/21 08:56:33;;;;;;;17.02;5.53;;;14.20;91.50;;;;;;5110000;27;20076;-65
2022/03/21 08:58:59;;;;;;;16.05;5.10;;;14.80;90.60;;;;;;5114816;27;20458;-66
2022/03/21 09:01:24;;;;;;;18.35;5.30;;;15.00;90.10;;;;;;5112408;27;20031;-68
2022/03/21 09:03:51;;;;;;;12.98;3.83;;;15.20;89.30;;;;;;5109063;27;20091;-66
2022/03/21 09:06:20;;;;;;;12.60;4.53;;;15.50;86.80;;;;;;5111034;27;20024;-65
2022/03/21 09:08:47;;;;;;;23.27;5.10;;;15.40;86.50;;;;;;5112494;27;20619;-66
2022/03/21 09:11:13;;;;;;;14.00;4.95;;;15.80;86.50;;;;;;5112720;28;20034;-66
2022/03/21 09:13:39;;;;;;;16.73;5.82;;;16.40;84.20;;;;;;5112050;28;20020;-67
2022/03/21 09:16:05;;;;;;;13.27;4.82;;;16.50;82.80;;;;;;5113323;27;20020;-65
2022/03/21 09:18:31;;;;;;;17.40;4.60;;;16.00;83.80;;;;;;5113676;27;20752;-68
2022/03/21 09:20:57;;;;;;;19.30;4.97;;;16.10;82.60;;;;;;5113454;28;20031;-66
2022/03/21 09:23:23;;;;;;;10.75;3.40;;;16.00;82.60;;;;;;5107159;28;20043;-66
2022/03/21 09:25:49;;;;;;;11.75;4.30;;;16.10;82.40;;;;;;5107777;28;20058;-66
2022/03/21 09:28:14;;;;;;;14.93;4.43;;;16.20;81.20;;;;;;5111418;28;20055;-68
2022/03/21 09:30:40;;;;;;;13.68;4.90;;;16.60;81.30;;;;;;5113774;28;20081;-68
2022/03/21 09:33:06;;;;;;;15.93;5.85;;;16.90;81.50;;;;;;5108141;28;20032;-68
2022/03/21 09:35:31;;;;;;;18.95;4.90;;;17.10;80.60;;;;;;5113345;28;20058;-69
2022/03/21 09:37:57;;;;;;;17.65;5.60;;;17.70;79.40;;;;;;5112470;28;20122;-66
2022/03/21 09:40:24;;;;;;;14.10;4.55;;;17.70;78.60;;;;;;5106928;28;20078;-69
2022/03/21 09:42:50;;;;;;;15.95;5.65;;;18.00;77.70;;;;;;5106131;28;20046;-69
2022/03/21 09:45:16;;;;;;;16.10;5.32;;;18.70;76.90;;;;;;5109306;27;20034;-69
2022/03/21 09:50:35;;;;;;;18.83;5.75;;;19.10;73.90;;;;;;5107204;28;20518;-69
2022/03/21 09:53:02;;;;;;;14.48;5.35;;;18.90;73.20;;;;;;5115897;27;20470;-69
2022/03/21 09:55:28;;;;;;;11.98;4.20;;;19.20;73.90;;;;;;5110327;28;20380;-68
2022/03/21 09:57:53;;;;;;;15.23;4.85;;;19.30;72.30;;;;;;5106746;28;20144;-68
2022/03/21 10:00:19;;;;;;;11.07;4.65;;;19.50;73.00;;;;;;5108462;28;20739;-68
2022/03/21 10:02:45;;;;;;;15.00;5.22;;;19.40;72.10;;;;;;5107293;28;20024;-69
2022/03/21 10:05:37;;;;;;;14.82;5.43;;;19.40;72.50;;;;;;5107147;27;20030;-69
2022/03/21 10:08:20;;;;;;;16.75;5.22;;;19.90;72.50;;;;;;5110442;27;20121;-66
2022/03/21 10:10:51;;;;;;;15.35;5.45;;;20.20;71.70;;;;;;5109388;28;20201;-66
2022/03/21 10:13:17;;;;;;;18.55;6.15;;;19.70;71.70;;;;;;5112509;27;20028;-66
2022/03/21 10:15:43;;;;;;;13.05;4.75;;;20.20;72.50;;;;;;5118758;27;20018;-66
2022/03/21 10:18:10;;;;;;;17.98;6.07;;;21.10;70.90;;;;;;5115870;27;20026;-67
2022/03/21 10:20:38;;;;;;;15.00;5.22;;;21.50;70.60;;;;;;5113712;27;20477;-67
2022/03/21 10:23:22;;;;;;;16.48;5.65;;;22.30;68.00;;;;;;5111871;27;20034;-67
2022/03/21 10:25:49;;;;;;;15.70;5.93;;;20.70;69.70;;;;;;5110232;27;20032;-67
2022/03/21 10:28:35;;;;;;;16.70;5.38;;;21.60;68.60;;;;;;5112653;27;20032;-67
2022/03/21 10:31:02;;;;;;;13.52;4.80;;;21.90;68.00;;;;;;5106211;27;20171;-67
2022/03/21 10:33:28;;;;;;;16.77;5.53;;;21.90;67.20;;;;;;5112145;27;20103;-67
2022/03/21 10:35:53;;;;;;;16.33;5.82;;;21.80;67.40;;;;;;5111063;27;20023;-67
2022/03/21 10:38:34;;;;;;;18.88;5.45;;;22.40;64.50;;;;;;5108430;27;20056;-67
2022/03/21 10:41:07;;;;;;;15.63;5.22;;;21.00;67.80;;;;;;5116574;27;20027;-67
2022/03/21 10:43:33;;;;;;;17.60;5.32;;;21.70;66.80;;;;;;5106730;27;20084;-67
2022/03/21 10:45:58;;;;;;;14.90;5.40;;;22.10;66.10;;;;;;5119018;27;20449;-67
2022/03/21 10:48:31;;;;;;;16.00;5.63;;;21.60;66.50;;;;;;5115349;27;20023;-67
2022/03/21 10:51:01;;;;;;;19.63;6.03;;;21.40;68.70;;;;;;5111050;27;20034;-67
2022/03/21 10:53:33;;;;;;;15.05;4.90;;;21.80;66.10;;;;;;5110749;27;20039;-67
2022/03/21 10:56:07;;;;;;;14.18;4.78;;;21.40;67.00;;;;;;5111588;27;20038;-67
2022/03/21 10:58:40;;;;;;;13.82;5.57;;;22.40;66.40;;;;;;5111547;27;20618;-67
2022/03/21 11:01:25;;;;;;;14.18;4.95;;;22.60;64.70;;;;;;5106240;27;20740;-67
2022/03/21 11:03:56;;;;;;;14.75;5.35;;;22.60;65.30;;;;;;5111785;27;20023;-67
2022/03/21 11:06:22;;;;;;;17.27;5.95;;;23.20;64.90;;;;;;5108768;27;20079;-67
2022/03/21 11:08:52;;;;;;;12.07;4.60;;;22.80;65.20;;;;;;5112479;27;20071;-67
2022/03/21 11:11:19;;;;;;;13.65;5.18;;;23.20;65.40;;;;;;5106474;27;20039;-67
2022/03/21 11:13:46;;;;;;;15.40;5.43;;;23.40;64.20;;;;;;5110952;27;20028;-67
2022/03/21 11:16:16;;;;;;;16.55;6.07;;;23.40;63.00;;;;;;5112348;27;20638;-67
2022/03/21 11:18:45;;;;;;;13.52;4.75;;;23.40;61.70;;;;;;5110439;27;20612;-67
2022/03/21 11:21:13;;;;;;;13.15;5.10;;;23.60;63.60;;;;;;5107445;27;20029;-69
2022/03/21 11:23:39;;;;;;;11.90;4.20;;;23.50;62.10;;;;;;5105757;27;20394;-68
2022/03/21 11:26:10;;;;;;;13.23;4.65;;;23.40;63.70;;;;;;5108476;27;20597;-68
2022/03/21 11:28:48;;;;;;;14.18;4.35;;;23.90;62.70;;;;;;5114157;27;20034;-68
2022/03/21 11:31:36;;;;;;;13.27;5.00;;;24.60;62.40;;;;;;5113370;27;20031;-66
2022/03/21 11:34:23;;;;;;;17.42;4.72;;;24.20;61.50;;;;;;5119960;27;20110;-68
2022/03/21 11:36:53;;;;;;;15.18;5.35;;;23.50;61.70;;;;;;5115166;27;20023;-68
2022/03/21 11:39:21;;;;;;;15.85;4.90;;;23.80;61.40;;;;;;5119441;27;20444;-68
2022/03/21 11:41:58;;;;;;;15.55;5.13;;;24.50;61.00;;;;;;5112811;27;20027;-68
2022/03/21 11:44:24;;;;;;;14.85;4.82;;;24.80;60.30;;;;;;5117354;27;20031;-68
2022/03/21 11:46:49;;;;;;;15.68;5.05;;;24.80;60.30;;;;;;5118306;27;20030;-68
2022/03/21 11:49:18;;;;;;;15.40;5.38;;;24.40;60.70;;;;;;5120930;27;20489;-68
2022/03/21 11:51:52;;;;;;;13.93;4.15;;;24.70;60.10;;;;;;5112005;27;20494;-68
2022/03/21 11:54:28;;;;;;;16.83;5.18;;;24.50;59.40;;;;;;5122260;27;20284;-68
2022/03/21 11:56:56;;;;;;;13.70;4.57;;;23.80;60.20;;;;;;5127397;27;20015;-68
2022/03/21 11:59:49;;;;;;;16.83;5.30;;;23.90;60.10;;;;;;5115146;27;20588;-68
2022/03/21 12:02:15;;;;;;;12.20;4.85;;;23.70;60.10;;;;;;5120311;27;20039;-68
2022/03/21 12:04:41;;;;;;;13.60;4.63;;;22.60;62.00;;;;;;5117653;27;20032;-68
2022/03/21 12:07:13;;;;;;;11.35;4.60;;;24.50;60.40;;;;;;5124740;27;20026;-68
2022/03/21 12:09:44;;;;;;;12.98;4.72;;;25.10;60.20;;;;;;5121319;27;20111;-68
2022/03/21 12:12:14;;;;;;;11.02;4.40;;;25.20;59.00;;;;;;5118230;27;20051;-68
2022/03/21 12:14:46;;;;;;;15.55;4.20;;;24.90;60.80;;;;;;5112218;27;20099;-68
2022/03/21 12:17:12;;;;;;;13.60;4.28;;;25.20;59.50;;;;;;5110658;27;20387;-68
2022/03/21 12:19:58;;;;;;;11.27;4.50;;;24.20;62.40;;;;;;5117957;27;20015;-68
2022/03/21 12:22:29;;;;;;;11.90;3.95;;;24.10;60.80;;;;;;5119216;27;20101;-68
2022/03/21 12:25:07;;;;;;;9.50;3.55;;;24.00;60.90;;;;;;5116852;27;20102;-66
2022/03/21 12:27:52;;;;;;;11.43;3.72;;;25.20;59.90;;;;;;5117099;27;20050;-68
2022/03/21 12:30:27;;;;;;;8.75;3.47;;;25.00;60.00;;;;;;5111535;27;20043;-68
2022/03/21 12:33:16;;;;;;;10.10;3.40;;;24.70;61.00;;;;;;5119187;27;20587;-67
2022/03/21 12:35:45;;;;;;;10.70;3.28;;;23.80;61.40;;;;;;5108562;27;20112;-68
2022/03/21 12:38:22;;;;;;;12.07;3.95;;;23.70;61.90;;;;;;5123993;27;20506;-67
2022/03/21 12:40:49;;;;;;;10.35;3.03;;;23.40;62.60;;;;;;5115399;27;20485;-68
2022/03/21 12:43:17;;;;;;;10.93;3.65;;;24.60;60.40;;;;;;5115124;27;20027;-68
2022/03/21 12:45:44;;;;;;;14.27;4.30;;;24.90;60.30;;;;;;5116802;27;20451;-68
2022/03/21 12:48:17;;;;;;;9.23;3.38;;;24.90;59.60;;;;;;5112820;27;20550;-68
2022/03/21 12:50:47;;;;;;;9.43;3.28;;;24.60;61.20;;;;;;5111614;27;20031;-68
2022/03/21 12:53:15;;;;;;;10.55;3.38;;;25.30;60.70;;;;;;5112529;27;20028;-68
2022/03/21 12:55:41;;;;;;;9.40;3.03;;;24.40;62.10;;;;;;5112670;27;20080;-68
2022/03/21 12:58:12;;;;;;;10.80;3.47;;;25.50;59.80;;;;;;5112674;27;20027;-68
2022/03/21 13:00:41;;;;;;;9.30;3.38;;;25.80;59.60;;;;;;5109392;27;20023;-68
2022/03/21 13:03:12;;;;;;;11.85;3.90;;;25.90;59.80;;;;;;5108324;28;20054;-68
2022/03/21 13:11:21;;;;;;;11.02;3.33;;;25.90;59.40;;;;;;5109389;28;20045;-68
2022/03/21 13:13:53;;;;;;;10.50;3.67;;;26.10;58.50;;;;;;5107103;28;20023;-68
2022/03/21 13:16:21;;;;;;;9.48;3.75;;;26.10;60.50;;;;;;5116694;27;20553;-68